sensor_id;sensor_type;location;lat;lon;timestamp;P1;durP1;ratioP1;P2;durP2;ratioP2
8036;SDS011;4061;51.360;7.340;2022-10-13T00:01:58;18.17;;;8.63;;
8036;SDS011;4061;51.360;7.340;2022-10-13T00:04:26;20.05;;;7.70;;
8036;SDS011;4061;51.360;7.340;2022-10-13T00:06:53;16.55;;;9.10;;
8036;SDS011;4061;51.360;7.340;2022-10-13T00:09:20;25.42;;;8.73;;
8036;SDS011;4061;51.360;7.340;2022-10-13T00:11:47;12.48;;;7.60;;
8036;SDS011;4061;51.360;7.340;2022-10-13T00:14:14;18.38;;;8.98;;
8036;SDS011;4061;51.360;7.340;2022-10-13T00:16:42;24.58;;;8.20;;
8036;SDS011;4061;51.360;7.340;2022-10-13T00:19:10;22.63;;;9.07;;
8036;SDS011;4061;51.360;7.340;2022-10-13T00:21:38;15.75;;;8.65;;
8036;SDS011;4061;51.360;7.340;2022-10-13T00:24:05;19.75;;;8.15;;
8036;SDS011;4061;51.360;7.340;2022-10-13T00:26:35;16.77;;;8.20;;
8036;SDS011;4061;51.360;7.340;2022-10-13T00:29:02;19.83;;;8.75;;
8036;SDS011;4061;51.360;7.340;2022-10-13T00:31:30;20.42;;;8.07;;
8036;SDS011;4061;51.360;7.340;2022-10-13T00:33:58;22.92;;;9.18;;
8036;SDS011;4061;51.360;7.340;2022-10-13T00:36:26;24.40;;;8.95;;
8036;SDS011;4061;51.360;7.340;2022-10-13T00:38:55;16.65;;;8.48;;
8036;SDS011;4061;51.360;7.340;2022-10-13T00:41:22;20.75;;;8.40;;
8036;SDS011;4061;51.360;7.340;2022-10-13T00:43:51;21.65;;;10.90;;
8036;SDS011;4061;51.360;7.340;2022-10-13T00:46:18;23.50;;;8.48;;
8036;SDS011;4061;51.360;7.340;2022-10-13T00:48:45;21.27;;;8.02;;
8036;SDS011;4061;51.360;7.340;2022-10-13T00:51:14;20.75;;;7.95;;
8036;SDS011;4061;51.360;7.340;2022-10-13T00:53:44;21.02;;;8.27;;
8036;SDS011;4061;51.360;7.340;2022-10-13T00:56:12;20.42;;;9.57;;
8036;SDS011;4061;51.360;7.340;2022-10-13T00:58:41;17.77;;;8.52;;
8036;SDS011;4061;51.360;7.340;2022-10-13T01:01:08;14.38;;;8.30;;
8036;SDS011;4061;51.360;7.340;2022-10-13T01:03:35;16.92;;;8.70;;
8036;SDS011;4061;51.360;7.340;2022-10-13T01:06:03;12.30;;;7.75;;
8036;SDS011;4061;51.360;7.340;2022-10-13T01:08:31;13.57;;;7.93;;
8036;SDS011;4061;51.360;7.340;2022-10-13T01:11:02;14.67;;;7.60;;
8036;SDS011;4061;51.360;7.340;2022-10-13T01:13:33;15.10;;;7.90;;
8036;SDS011;4061;51.360;7.340;2022-10-13T01:16:03;17.42;;;7.85;;
8036;SDS011;4061;51.360;7.340;2022-10-13T01:18:33;14.52;;;8.05;;
8036;SDS011;4061;51.360;7.340;2022-10-13T01:21:05;18.15;;;8.40;;
8036;SDS011;4061;51.360;7.340;2022-10-13T01:29:12;18.30;;;7.95;;
8036;SDS011;4061;51.360;7.340;2022-10-13T01:31:50;17.00;;;8.50;;
8036;SDS011;4061;51.360;7.340;2022-10-13T01:34:21;16.70;;;7.80;;
8036;SDS011;4061;51.360;7.340;2022-10-13T01:36:50;20.33;;;8.73;;
8036;SDS011;4061;51.360;7.340;2022-10-13T01:39:22;21.85;;;7.93;;
8036;SDS011;4061;51.360;7.340;2022-10-13T01:41:51;20.83;;;9.10;;
8036;SDS011;4061;51.360;7.340;2022-10-13T01:44:20;16.27;;;8.37;;
8036;SDS011;4061;51.360;7.340;2022-10-13T01:46:50;16.63;;;8.25;;
8036;SDS011;4061;51.360;7.340;2022-10-13T01:49:18;24.50;;;8.93;;
8036;SDS011;4061;51.360;7.340;2022-10-13T01:51:46;18.00;;;9.50;;
8036;SDS011;4061;51.360;7.340;2022-10-13T01:54:14;14.73;;;7.70;;
8036;SDS011;4061;51.360;7.340;2022-10-13T01:56:49;25.38;;;8.80;;
8036;SDS011;4061;51.360;7.340;2022-10-13T01:59:17;22.50;;;9.30;;
8036;SDS011;4061;51.360;7.340;2022-10-13T02:01:46;20.10;;;8.32;;
8036;SDS011;4061;51.360;7.340;2022-10-13T02:04:19;19.33;;;9.18;;
8036;SDS011;4061;51.360;7.340;2022-10-13T02:06:50;18.13;;;8.20;;
8036;SDS011;4061;51.360;7.340;2022-10-13T02:09:19;19.20;;;8.38;;
8036;SDS011;4061;51.360;7.340;2022-10-13T02:11:48;19.00;;;8.48;;
8036;SDS011;4061;51.360;7.340;2022-10-13T02:14:18;19.23;;;7.83;;
8036;SDS011;4061;51.360;7.340;2022-10-13T02:16:46;21.80;;;8.43;;
8036;SDS011;4061;51.360;7.340;2022-10-13T02:19:15;17.85;;;8.05;;
8036;SDS011;4061;51.360;7.340;2022-10-13T02:21:44;13.03;;;8.00;;
8036;SDS011;4061;51.360;7.340;2022-10-13T02:24:12;18.65;;;7.60;;
8036;SDS011;4061;51.360;7.340;2022-10-13T02:26:39;20.33;;;9.02;;
8036;SDS011;4061;51.360;7.340;2022-10-13T02:29:07;16.15;;;7.75;;
8036;SDS011;4061;51.360;7.340;2022-10-13T02:31:35;17.93;;;8.00;;
8036;SDS011;4061;51.360;7.340;2022-10-13T02:34:02;13.80;;;7.55;;
8036;SDS011;4061;51.360;7.340;2022-10-13T02:36:29;16.15;;;7.68;;
8036;SDS011;4061;51.360;7.340;2022-10-13T02:38:58;23.58;;;8.55;;
8036;SDS011;4061;51.360;7.340;2022-10-13T02:41:25;15.23;;;7.97;;
8036;SDS011;4061;51.360;7.340;2022-10-13T02:43:52;13.80;;;8.70;;
8036;SDS011;4061;51.360;7.340;2022-10-13T02:46:19;21.13;;;8.48;;
8036;SDS011;4061;51.360;7.340;2022-10-13T02:48:47;18.00;;;8.68;;
8036;SDS011;4061;51.360;7.340;2022-10-13T02:51:14;16.40;;;8.20;;
8036;SDS011;4061;51.360;7.340;2022-10-13T02:53:41;18.00;;;8.48;;
8036;SDS011;4061;51.360;7.340;2022-10-13T02:56:10;15.48;;;9.20;;
8036;SDS011;4061;51.360;7.340;2022-10-13T02:58:37;18.52;;;8.20;;
8036;SDS011;4061;51.360;7.340;2022-10-13T03:01:05;15.80;;;8.45;;
8036;SDS011;4061;51.360;7.340;2022-10-13T03:03:32;15.07;;;7.70;;
8036;SDS011;4061;51.360;7.340;2022-10-13T03:05:59;19.95;;;8.18;;
8036;SDS011;4061;51.360;7.340;2022-10-13T03:08:26;21.85;;;8.73;;
8036;SDS011;4061;51.360;7.340;2022-10-13T03:10:53;17.75;;;8.10;;
8036;SDS011;4061;51.360;7.340;2022-10-13T03:13:23;15.88;;;8.25;;
8036;SDS011;4061;51.360;7.340;2022-10-13T03:15:50;18.55;;;7.80;;
8036;SDS011;4061;51.360;7.340;2022-10-13T03:18:17;20.50;;;8.20;;
8036;SDS011;4061;51.360;7.340;2022-10-13T03:20:53;14.70;;;8.25;;
8036;SDS011;4061;51.360;7.340;2022-10-13T03:23:20;18.55;;;8.98;;
8036;SDS011;4061;51.360;7.340;2022-10-13T03:25:47;17.92;;;8.10;;
8036;SDS011;4061;51.360;7.340;2022-10-13T03:28:14;21.65;;;8.00;;
8036;SDS011;4061;51.360;7.340;2022-10-13T03:30:43;22.15;;;8.90;;
8036;SDS011;4061;51.360;7.340;2022-10-13T03:33:10;18.15;;;7.85;;
8036;SDS011;4061;51.360;7.340;2022-10-13T03:35:37;18.77;;;7.55;;
8036;SDS011;4061;51.360;7.340;2022-10-13T03:38:04;16.30;;;8.27;;
8036;SDS011;4061;51.360;7.340;2022-10-13T03:40:32;16.13;;;7.53;;
8036;SDS011;4061;51.360;7.340;2022-10-13T03:43:01;13.30;;;6.63;;
8036;SDS011;4061;51.360;7.340;2022-10-13T03:45:28;21.75;;;8.82;;
8036;SDS011;4061;51.360;7.340;2022-10-13T03:47:57;15.23;;;8.32;;
8036;SDS011;4061;51.360;7.340;2022-10-13T03:50:24;20.48;;;8.30;;
8036;SDS011;4061;51.360;7.340;2022-10-13T03:52:51;29.63;;;9.50;;
8036;SDS011;4061;51.360;7.340;2022-10-13T03:55:18;17.80;;;7.63;;
8036;SDS011;4061;51.360;7.340;2022-10-13T03:57:45;16.65;;;7.65;;
8036;SDS011;4061;51.360;7.340;2022-10-13T04:00:13;15.48;;;7.90;;
8036;SDS011;4061;51.360;7.340;2022-10-13T04:02:41;19.42;;;7.40;;
8036;SDS011;4061;51.360;7.340;2022-10-13T04:05:09;15.07;;;7.80;;
8036;SDS011;4061;51.360;7.340;2022-10-13T04:07:36;15.77;;;8.43;;
8036;SDS011;4061;51.360;7.340;2022-10-13T04:10:04;15.75;;;7.78;;
8036;SDS011;4061;51.360;7.340;2022-10-13T04:12:31;16.17;;;7.85;;
8036;SDS011;4061;51.360;7.340;2022-10-13T04:14:58;17.08;;;8.10;;
8036;SDS011;4061;51.360;7.340;2022-10-13T04:17:25;16.33;;;8.40;;
8036;SDS011;4061;51.360;7.340;2022-10-13T04:19:53;14.43;;;7.97;;
8036;SDS011;4061;51.360;7.340;2022-10-13T04:22:21;17.20;;;8.45;;
8036;SDS011;4061;51.360;7.340;2022-10-13T04:24:48;14.32;;;8.02;;
8036;SDS011;4061;51.360;7.340;2022-10-13T04:27:15;18.27;;;8.90;;
8036;SDS011;4061;51.360;7.340;2022-10-13T04:29:44;20.95;;;8.65;;
8036;SDS011;4061;51.360;7.340;2022-10-13T04:32:11;23.80;;;7.78;;
8036;SDS011;4061;51.360;7.340;2022-10-13T04:34:38;20.83;;;7.93;;
8036;SDS011;4061;51.360;7.340;2022-10-13T04:37:05;21.05;;;8.75;;
8036;SDS011;4061;51.360;7.340;2022-10-13T04:39:34;17.85;;;8.70;;
8036;SDS011;4061;51.360;7.340;2022-10-13T04:42:01;19.70;;;8.68;;
8036;SDS011;4061;51.360;7.340;2022-10-13T04:44:28;16.02;;;8.45;;
8036;SDS011;4061;51.360;7.340;2022-10-13T04:46:55;19.67;;;8.23;;
8036;SDS011;4061;51.360;7.340;2022-10-13T04:49:24;17.48;;;7.75;;
8036;SDS011;4061;51.360;7.340;2022-10-13T04:51:51;20.73;;;8.27;;
8036;SDS011;4061;51.360;7.340;2022-10-13T04:54:19;19.90;;;7.25;;
8036;SDS011;4061;51.360;7.340;2022-10-13T04:56:47;19.08;;;8.38;;
8036;SDS011;4061;51.360;7.340;2022-10-13T04:59:14;18.27;;;7.15;;
8036;SDS011;4061;51.360;7.340;2022-10-13T05:01:41;15.50;;;7.43;;
8036;SDS011;4061;51.360;7.340;2022-10-13T05:04:09;17.52;;;7.38;;
8036;SDS011;4061;51.360;7.340;2022-10-13T05:06:38;20.90;;;8.18;;
8036;SDS011;4061;51.360;7.340;2022-10-13T05:09:05;12.80;;;6.90;;
8036;SDS011;4061;51.360;7.340;2022-10-13T05:11:33;17.05;;;7.32;;
8036;SDS011;4061;51.360;7.340;2022-10-13T05:14:01;22.30;;;7.13;;
8036;SDS011;4061;51.360;7.340;2022-10-13T05:16:28;15.52;;;6.60;;
8036;SDS011;4061;51.360;7.340;2022-10-13T05:18:56;13.52;;;8.43;;
8036;SDS011;4061;51.360;7.340;2022-10-13T05:21:24;13.30;;;6.55;;
8036;SDS011;4061;51.360;7.340;2022-10-13T05:23:51;17.17;;;7.22;;
8036;SDS011;4061;51.360;7.340;2022-10-13T05:26:20;20.83;;;7.68;;
8036;SDS011;4061;51.360;7.340;2022-10-13T05:28:48;13.27;;;7.78;;
8036;SDS011;4061;51.360;7.340;2022-10-13T05:31:17;18.83;;;7.55;;
8036;SDS011;4061;51.360;7.340;2022-10-13T05:33:45;23.00;;;7.25;;
8036;SDS011;4061;51.360;7.340;2022-10-13T05:36:13;11.82;;;6.68;;
8036;SDS011;4061;51.360;7.340;2022-10-13T05:38:40;14.13;;;7.38;;
8036;SDS011;4061;51.360;7.340;2022-10-13T05:41:08;20.13;;;7.95;;
8036;SDS011;4061;51.360;7.340;2022-10-13T05:43:36;15.85;;;7.03;;
8036;SDS011;4061;51.360;7.340;2022-10-13T05:46:04;16.40;;;8.15;;
8036;SDS011;4061;51.360;7.340;2022-10-13T05:48:33;16.58;;;7.32;;
8036;SDS011;4061;51.360;7.340;2022-10-13T05:51:01;13.25;;;7.07;;
8036;SDS011;4061;51.360;7.340;2022-10-13T05:53:30;21.17;;;7.25;;
8036;SDS011;4061;51.360;7.340;2022-10-13T05:55:59;18.60;;;7.07;;
8036;SDS011;4061;51.360;7.340;2022-10-13T05:58:31;19.83;;;7.53;;
8036;SDS011;4061;51.360;7.340;2022-10-13T06:00:58;11.80;;;7.28;;
8036;SDS011;4061;51.360;7.340;2022-10-13T06:03:25;12.88;;;6.78;;
8036;SDS011;4061;51.360;7.340;2022-10-13T06:05:55;15.98;;;7.18;;
8036;SDS011;4061;51.360;7.340;2022-10-13T06:08:22;16.42;;;6.32;;
8036;SDS011;4061;51.360;7.340;2022-10-13T06:10:49;18.55;;;7.30;;
8036;SDS011;4061;51.360;7.340;2022-10-13T06:13:16;19.27;;;7.45;;
8036;SDS011;4061;51.360;7.340;2022-10-13T06:15:44;16.48;;;8.07;;
8036;SDS011;4061;51.360;7.340;2022-10-13T06:18:11;12.88;;;6.95;;
8036;SDS011;4061;51.360;7.340;2022-10-13T06:20:38;18.45;;;6.93;;
8036;SDS011;4061;51.360;7.340;2022-10-13T06:23:08;15.65;;;6.97;;
8036;SDS011;4061;51.360;7.340;2022-10-13T06:25:35;17.85;;;7.05;;
8036;SDS011;4061;51.360;7.340;2022-10-13T06:28:02;15.73;;;7.40;;
8036;SDS011;4061;51.360;7.340;2022-10-13T06:30:30;14.88;;;7.30;;
8036;SDS011;4061;51.360;7.340;2022-10-13T06:32:57;14.70;;;6.97;;
8036;SDS011;4061;51.360;7.340;2022-10-13T06:35:24;11.88;;;7.15;;
8036;SDS011;4061;51.360;7.340;2022-10-13T06:37:51;14.63;;;6.90;;
8036;SDS011;4061;51.360;7.340;2022-10-13T06:40:20;16.67;;;6.65;;
8036;SDS011;4061;51.360;7.340;2022-10-13T06:42:50;12.20;;;6.68;;
8036;SDS011;4061;51.360;7.340;2022-10-13T06:45:17;17.95;;;6.95;;
8036;SDS011;4061;51.360;7.340;2022-10-13T06:47:44;14.40;;;6.25;;
8036;SDS011;4061;51.360;7.340;2022-10-13T06:50:11;11.43;;;6.40;;
8036;SDS011;4061;51.360;7.340;2022-10-13T06:52:39;14.10;;;6.30;;
8036;SDS011;4061;51.360;7.340;2022-10-13T06:55:07;11.85;;;5.75;;
8036;SDS011;4061;51.360;7.340;2022-10-13T06:57:36;12.50;;;6.47;;
8036;SDS011;4061;51.360;7.340;2022-10-13T07:00:03;10.50;;;6.05;;
8036;SDS011;4061;51.360;7.340;2022-10-13T07:02:31;21.58;;;5.80;;
8036;SDS011;4061;51.360;7.340;2022-10-13T07:04:58;15.02;;;6.80;;
8036;SDS011;4061;51.360;7.340;2022-10-13T07:07:25;12.32;;;6.70;;
8036;SDS011;4061;51.360;7.340;2022-10-13T07:09:53;17.23;;;6.38;;
8036;SDS011;4061;51.360;7.340;2022-10-13T07:12:20;14.25;;;5.85;;
8036;SDS011;4061;51.360;7.340;2022-10-13T07:14:48;20.92;;;6.05;;
8036;SDS011;4061;51.360;7.340;2022-10-13T07:17:15;15.13;;;6.45;;
8036;SDS011;4061;51.360;7.340;2022-10-13T07:19:43;8.52;;;5.85;;
8036;SDS011;4061;51.360;7.340;2022-10-13T07:22:12;12.70;;;6.30;;
8036;SDS011;4061;51.360;7.340;2022-10-13T07:24:40;11.52;;;5.88;;
8036;SDS011;4061;51.360;7.340;2022-10-13T07:27:07;14.40;;;5.85;;
8036;SDS011;4061;51.360;7.340;2022-10-13T07:29:34;15.15;;;6.15;;
8036;SDS011;4061;51.360;7.340;2022-10-13T07:32:03;13.85;;;5.97;;
8036;SDS011;4061;51.360;7.340;2022-10-13T07:34:31;9.15;;;5.43;;
8036;SDS011;4061;51.360;7.340;2022-10-13T07:36:58;13.57;;;6.20;;
8036;SDS011;4061;51.360;7.340;2022-10-13T07:39:25;14.43;;;5.53;;
8036;SDS011;4061;51.360;7.340;2022-10-13T07:41:52;14.45;;;6.13;;
8036;SDS011;4061;51.360;7.340;2022-10-13T07:44:19;15.82;;;7.60;;
8036;SDS011;4061;51.360;7.340;2022-10-13T07:46:46;9.80;;;5.50;;
8036;SDS011;4061;51.360;7.340;2022-10-13T07:49:15;11.27;;;5.55;;
8036;SDS011;4061;51.360;7.340;2022-10-13T07:51:42;8.52;;;5.32;;
8036;SDS011;4061;51.360;7.340;2022-10-13T07:54:09;11.75;;;5.90;;
8036;SDS011;4061;51.360;7.340;2022-10-13T07:56:37;12.63;;;5.60;;
8036;SDS011;4061;51.360;7.340;2022-10-13T07:59:04;13.30;;;5.55;;
8036;SDS011;4061;51.360;7.340;2022-10-13T08:01:31;18.02;;;5.65;;
8036;SDS011;4061;51.360;7.340;2022-10-13T08:03:58;12.98;;;5.28;;
8036;SDS011;4061;51.360;7.340;2022-10-13T08:06:26;8.68;;;5.13;;
8036;SDS011;4061;51.360;7.340;2022-10-13T08:08:54;9.50;;;5.60;;
8036;SDS011;4061;51.360;7.340;2022-10-13T08:11:22;16.08;;;6.05;;
8036;SDS011;4061;51.360;7.340;2022-10-13T08:13:49;14.02;;;5.72;;
8036;SDS011;4061;51.360;7.340;2022-10-13T08:16:17;15.88;;;5.50;;
8036;SDS011;4061;51.360;7.340;2022-10-13T08:18:45;11.50;;;5.13;;
8036;SDS011;4061;51.360;7.340;2022-10-13T08:21:12;11.52;;;5.28;;
8036;SDS011;4061;51.360;7.340;2022-10-13T08:23:43;7.68;;;5.15;;
8036;SDS011;4061;51.360;7.340;2022-10-13T08:26:13;9.52;;;5.30;;
8036;SDS011;4061;51.360;7.340;2022-10-13T08:28:41;9.90;;;5.40;;
8036;SDS011;4061;51.360;7.340;2022-10-13T08:31:08;16.08;;;5.53;;
8036;SDS011;4061;51.360;7.340;2022-10-13T08:33:35;10.00;;;5.18;;
8036;SDS011;4061;51.360;7.340;2022-10-13T08:36:02;10.00;;;5.00;;
8036;SDS011;4061;51.360;7.340;2022-10-13T08:38:29;9.93;;;5.60;;
8036;SDS011;4061;51.360;7.340;2022-10-13T08:40:58;11.90;;;5.35;;
8036;SDS011;4061;51.360;7.340;2022-10-13T08:43:25;9.60;;;5.30;;
8036;SDS011;4061;51.360;7.340;2022-10-13T08:45:54;11.55;;;5.57;;
8036;SDS011;4061;51.360;7.340;2022-10-13T08:48:24;8.75;;;5.13;;
8036;SDS011;4061;51.360;7.340;2022-10-13T08:50:54;10.02;;;4.68;;
8036;SDS011;4061;51.360;7.340;2022-10-13T08:53:24;10.38;;;5.03;;
8036;SDS011;4061;51.360;7.340;2022-10-13T08:55:54;9.63;;;5.00;;
8036;SDS011;4061;51.360;7.340;2022-10-13T08:58:24;11.63;;;4.63;;
8036;SDS011;4061;51.360;7.340;2022-10-13T09:00:55;9.63;;;5.00;;
8036;SDS011;4061;51.360;7.340;2022-10-13T09:03:25;16.52;;;5.20;;
8036;SDS011;4061;51.360;7.340;2022-10-13T09:06:02;7.30;;;5.05;;
8036;SDS011;4061;51.360;7.340;2022-10-13T09:08:37;10.35;;;5.35;;
8036;SDS011;4061;51.360;7.340;2022-10-13T09:11:05;10.15;;;5.43;;
8036;SDS011;4061;51.360;7.340;2022-10-13T09:13:33;8.48;;;5.03;;
8036;SDS011;4061;51.360;7.340;2022-10-13T09:16:00;7.82;;;5.30;;
8036;SDS011;4061;51.360;7.340;2022-10-13T09:18:28;10.75;;;5.35;;
8036;SDS011;4061;51.360;7.340;2022-10-13T09:21:09;9.65;;;4.40;;
8036;SDS011;4061;51.360;7.340;2022-10-13T09:23:36;9.32;;;4.70;;
8036;SDS011;4061;51.360;7.340;2022-10-13T09:26:05;14.32;;;5.00;;
8036;SDS011;4061;51.360;7.340;2022-10-13T09:28:34;9.68;;;4.97;;
8036;SDS011;4061;51.360;7.340;2022-10-13T09:31:03;11.50;;;5.82;;
8036;SDS011;4061;51.360;7.340;2022-10-13T09:33:33;8.48;;;5.10;;
8036;SDS011;4061;51.360;7.340;2022-10-13T09:36:05;7.45;;;5.05;;
8036;SDS011;4061;51.360;7.340;2022-10-13T09:38:35;9.90;;;4.97;;
8036;SDS011;4061;51.360;7.340;2022-10-13T09:41:03;10.30;;;4.43;;
8036;SDS011;4061;51.360;7.340;2022-10-13T09:43:32;8.90;;;5.18;;
8036;SDS011;4061;51.360;7.340;2022-10-13T09:46:01;17.13;;;5.35;;
8036;SDS011;4061;51.360;7.340;2022-10-13T09:48:30;13.73;;;5.22;;
8036;SDS011;4061;51.360;7.340;2022-10-13T09:50:58;10.27;;;5.18;;
8036;SDS011;4061;51.360;7.340;2022-10-13T09:53:28;6.75;;;4.53;;
8036;SDS011;4061;51.360;7.340;2022-10-13T09:56:07;17.75;;;5.43;;
8036;SDS011;4061;51.360;7.340;2022-10-13T09:58:34;9.98;;;5.28;;
8036;SDS011;4061;51.360;7.340;2022-10-13T10:01:04;9.93;;;5.03;;
8036;SDS011;4061;51.360;7.340;2022-10-13T10:03:33;13.70;;;5.15;;
8036;SDS011;4061;51.360;7.340;2022-10-13T10:06:02;11.90;;;5.40;;
8036;SDS011;4061;51.360;7.340;2022-10-13T10:08:30;12.85;;;5.63;;
8036;SDS011;4061;51.360;7.340;2022-10-13T10:10:59;16.70;;;5.53;;
8036;SDS011;4061;51.360;7.340;2022-10-13T10:13:27;7.95;;;5.40;;
8036;SDS011;4061;51.360;7.340;2022-10-13T10:15:55;11.38;;;5.50;;
8036;SDS011;4061;51.360;7.340;2022-10-13T10:18:28;12.50;;;5.60;;
8036;SDS011;4061;51.360;7.340;2022-10-13T10:21:01;13.85;;;5.03;;
8036;SDS011;4061;51.360;7.340;2022-10-13T10:23:34;11.25;;;5.28;;
8036;SDS011;4061;51.360;7.340;2022-10-13T10:26:03;9.93;;;4.93;;
8036;SDS011;4061;51.360;7.340;2022-10-13T10:28:46;13.10;;;5.28;;
8036;SDS011;4061;51.360;7.340;2022-10-13T10:31:18;12.85;;;4.65;;
8036;SDS011;4061;51.360;7.340;2022-10-13T10:33:50;9.90;;;4.82;;
8036;SDS011;4061;51.360;7.340;2022-10-13T10:36:22;12.02;;;5.40;;
8036;SDS011;4061;51.360;7.340;2022-10-13T10:38:53;13.48;;;5.70;;
8036;SDS011;4061;51.360;7.340;2022-10-13T10:41:29;13.32;;;5.93;;
8036;SDS011;4061;51.360;7.340;2022-10-13T10:43:59;14.38;;;5.38;;
8036;SDS011;4061;51.360;7.340;2022-10-13T10:46:28;10.90;;;5.75;;
8036;SDS011;4061;51.360;7.340;2022-10-13T10:48:59;15.13;;;5.90;;
8036;SDS011;4061;51.360;7.340;2022-10-13T10:51:29;8.73;;;5.20;;
8036;SDS011;4061;51.360;7.340;2022-10-13T10:53:59;11.95;;;5.35;;
8036;SDS011;4061;51.360;7.340;2022-10-13T10:56:32;9.68;;;5.50;;
8036;SDS011;4061;51.360;7.340;2022-10-13T10:59:15;10.82;;;5.28;;
8036;SDS011;4061;51.360;7.340;2022-10-13T11:01:45;7.82;;;4.68;;
8036;SDS011;4061;51.360;7.340;2022-10-13T11:04:28;8.80;;;5.00;;
8036;SDS011;4061;51.360;7.340;2022-10-13T11:06:57;13.18;;;4.93;;
8036;SDS011;4061;51.360;7.340;2022-10-13T11:12:20;18.48;;;4.22;;
8036;SDS011;4061;51.360;7.340;2022-10-13T11:14:48;7.97;;;3.83;;
8036;SDS011;4061;51.360;7.340;2022-10-13T11:17:28;5.68;;;4.40;;
8036;SDS011;4061;51.360;7.340;2022-10-13T11:19:57;12.52;;;3.85;;
8036;SDS011;4061;51.360;7.340;2022-10-13T11:22:25;10.55;;;3.47;;
8036;SDS011;4061;51.360;7.340;2022-10-13T11:24:54;12.98;;;3.95;;
8036;SDS011;4061;51.360;7.340;2022-10-13T11:27:25;9.68;;;4.55;;
8036;SDS011;4061;51.360;7.340;2022-10-13T11:29:54;10.32;;;4.35;;
8036;SDS011;4061;51.360;7.340;2022-10-13T11:32:41;8.13;;;4.28;;
8036;SDS011;4061;51.360;7.340;2022-10-13T11:35:20;12.48;;;3.45;;
8036;SDS011;4061;51.360;7.340;2022-10-13T11:37:50;8.20;;;3.55;;
8036;SDS011;4061;51.360;7.340;2022-10-13T11:40:21;6.30;;;3.85;;
8036;SDS011;4061;51.360;7.340;2022-10-13T11:45:40;9.30;;;3.20;;
8036;SDS011;4061;51.360;7.340;2022-10-13T11:48:18;15.55;;;4.38;;
8036;SDS011;4061;51.360;7.340;2022-10-13T11:50:57;5.45;;;3.47;;
8036;SDS011;4061;51.360;7.340;2022-10-13T11:53:30;8.65;;;4.65;;
8036;SDS011;4061;51.360;7.340;2022-10-13T11:55:59;12.30;;;4.20;;
8036;SDS011;4061;51.360;7.340;2022-10-13T11:58:27;4.55;;;3.25;;
8036;SDS011;4061;51.360;7.340;2022-10-13T12:00:55;8.52;;;4.50;;
8036;SDS011;4061;51.360;7.340;2022-10-13T12:03:25;9.57;;;3.92;;
8036;SDS011;4061;51.360;7.340;2022-10-13T12:05:55;5.32;;;3.92;;
8036;SDS011;4061;51.360;7.340;2022-10-13T12:08:23;9.38;;;3.92;;
8036;SDS011;4061;51.360;7.340;2022-10-13T12:10:52;6.07;;;3.47;;
8036;SDS011;4061;51.360;7.340;2022-10-13T12:13:22;11.35;;;4.10;;
8036;SDS011;4061;51.360;7.340;2022-10-13T12:15:55;7.10;;;3.60;;
8036;SDS011;4061;51.360;7.340;2022-10-13T12:18:24;6.95;;;3.28;;
8036;SDS011;4061;51.360;7.340;2022-10-13T12:20:52;9.50;;;3.75;;
8036;SDS011;4061;51.360;7.340;2022-10-13T12:23:21;9.85;;;4.10;;
8036;SDS011;4061;51.360;7.340;2022-10-13T12:25:48;8.60;;;4.32;;
8036;SDS011;4061;51.360;7.340;2022-10-13T12:28:21;6.22;;;3.33;;
8036;SDS011;4061;51.360;7.340;2022-10-13T12:30:50;7.25;;;3.38;;
8036;SDS011;4061;51.360;7.340;2022-10-13T12:33:26;4.15;;;3.03;;
8036;SDS011;4061;51.360;7.340;2022-10-13T12:35:53;8.45;;;3.25;;
8036;SDS011;4061;51.360;7.340;2022-10-13T12:38:22;4.97;;;3.75;;
8036;SDS011;4061;51.360;7.340;2022-10-13T12:40:50;14.25;;;4.03;;
8036;SDS011;4061;51.360;7.340;2022-10-13T12:43:19;8.05;;;3.85;;
8036;SDS011;4061;51.360;7.340;2022-10-13T12:45:49;7.55;;;3.90;;
8036;SDS011;4061;51.360;7.340;2022-10-13T12:48:27;11.13;;;3.92;;
8036;SDS011;4061;51.360;7.340;2022-10-13T12:50:54;7.60;;;4.00;;
8036;SDS011;4061;51.360;7.340;2022-10-13T12:53:24;7.05;;;4.30;;
8036;SDS011;4061;51.360;7.340;2022-10-13T12:55:53;10.30;;;4.40;;
8036;SDS011;4061;51.360;7.340;2022-10-13T12:58:24;7.20;;;4.50;;
8036;SDS011;4061;51.360;7.340;2022-10-13T13:00:55;8.68;;;3.58;;
8036;SDS011;4061;51.360;7.340;2022-10-13T13:03:25;9.77;;;4.10;;
8036;SDS011;4061;51.360;7.340;2022-10-13T13:06:05;15.70;;;4.80;;
8036;SDS011;4061;51.360;7.340;2022-10-13T13:08:34;6.78;;;3.90;;
8036;SDS011;4061;51.360;7.340;2022-10-13T13:11:02;9.05;;;4.00;;
8036;SDS011;4061;51.360;7.340;2022-10-13T13:13:31;5.80;;;4.15;;
8036;SDS011;4061;51.360;7.340;2022-10-13T13:16:11;10.93;;;4.60;;
8036;SDS011;4061;51.360;7.340;2022-10-13T13:18:39;6.80;;;4.57;;
8036;SDS011;4061;51.360;7.340;2022-10-13T13:21:07;13.98;;;5.05;;
8036;SDS011;4061;51.360;7.340;2022-10-13T13:23:36;7.95;;;4.65;;
8036;SDS011;4061;51.360;7.340;2022-10-13T13:26:05;7.30;;;4.50;;
8036;SDS011;4061;51.360;7.340;2022-10-13T13:28:33;9.95;;;4.32;;
8036;SDS011;4061;51.360;7.340;2022-10-13T13:31:00;10.05;;;5.35;;
8036;SDS011;4061;51.360;7.340;2022-10-13T13:33:27;12.15;;;4.38;;
8036;SDS011;4061;51.360;7.340;2022-10-13T13:35:54;12.20;;;5.32;;
8036;SDS011;4061;51.360;7.340;2022-10-13T13:38:22;8.68;;;4.53;;
8036;SDS011;4061;51.360;7.340;2022-10-13T13:40:50;13.95;;;5.40;;
8036;SDS011;4061;51.360;7.340;2022-10-13T13:43:17;9.20;;;5.28;;
8036;SDS011;4061;51.360;7.340;2022-10-13T13:45:44;15.38;;;5.72;;
8036;SDS011;4061;51.360;7.340;2022-10-13T13:48:12;15.95;;;4.97;;
8036;SDS011;4061;51.360;7.340;2022-10-13T13:50:39;10.85;;;4.95;;
8036;SDS011;4061;51.360;7.340;2022-10-13T13:53:06;12.07;;;5.78;;
8036;SDS011;4061;51.360;7.340;2022-10-13T13:55:33;14.70;;;5.78;;
8036;SDS011;4061;51.360;7.340;2022-10-13T13:58:03;11.85;;;5.50;;
8036;SDS011;4061;51.360;7.340;2022-10-13T14:00:30;18.83;;;6.97;;
8036;SDS011;4061;51.360;7.340;2022-10-13T14:02:57;13.98;;;6.88;;
8036;SDS011;4061;51.360;7.340;2022-10-13T14:05:24;8.45;;;5.38;;
8036;SDS011;4061;51.360;7.340;2022-10-13T14:07:52;11.55;;;6.05;;
8036;SDS011;4061;51.360;7.340;2022-10-13T14:10:21;10.23;;;5.85;;
8036;SDS011;4061;51.360;7.340;2022-10-13T14:12:48;14.15;;;6.65;;
8036;SDS011;4061;51.360;7.340;2022-10-13T14:15:17;13.95;;;6.45;;
8036;SDS011;4061;51.360;7.340;2022-10-13T14:17:44;13.52;;;5.60;;
8036;SDS011;4061;51.360;7.340;2022-10-13T14:20:12;15.25;;;6.20;;
8036;SDS011;4061;51.360;7.340;2022-10-13T14:22:39;11.35;;;6.13;;
8036;SDS011;4061;51.360;7.340;2022-10-13T14:25:06;14.05;;;6.07;;
8036;SDS011;4061;51.360;7.340;2022-10-13T14:27:34;11.27;;;6.43;;
8036;SDS011;4061;51.360;7.340;2022-10-13T14:30:01;11.98;;;5.75;;
8036;SDS011;4061;51.360;7.340;2022-10-13T14:32:30;13.88;;;6.47;;
8036;SDS011;4061;51.360;7.340;2022-10-13T14:34:57;14.70;;;6.43;;
8036;SDS011;4061;51.360;7.340;2022-10-13T14:37:24;10.82;;;6.05;;
8036;SDS011;4061;51.360;7.340;2022-10-13T14:39:52;13.32;;;6.60;;
8036;SDS011;4061;51.360;7.340;2022-10-13T14:42:19;14.15;;;7.13;;
8036;SDS011;4061;51.360;7.340;2022-10-13T14:44:46;13.15;;;7.10;;
8036;SDS011;4061;51.360;7.340;2022-10-13T14:47:13;13.95;;;6.85;;
8036;SDS011;4061;51.360;7.340;2022-10-13T14:49:42;14.77;;;7.03;;
8036;SDS011;4061;51.360;7.340;2022-10-13T14:52:09;14.93;;;7.80;;
8036;SDS011;4061;51.360;7.340;2022-10-13T14:54:36;14.23;;;7.40;;
8036;SDS011;4061;51.360;7.340;2022-10-13T14:57:03;15.23;;;6.50;;
8036;SDS011;4061;51.360;7.340;2022-10-13T14:59:32;20.67;;;7.22;;
8036;SDS011;4061;51.360;7.340;2022-10-13T15:01:59;16.63;;;7.43;;
8036;SDS011;4061;51.360;7.340;2022-10-13T15:04:26;13.75;;;6.32;;
8036;SDS011;4061;51.360;7.340;2022-10-13T15:06:54;19.42;;;7.50;;
8036;SDS011;4061;51.360;7.340;2022-10-13T15:09:22;16.23;;;7.45;;
8036;SDS011;4061;51.360;7.340;2022-10-13T15:11:49;10.00;;;6.53;;
8036;SDS011;4061;51.360;7.340;2022-10-13T15:14:16;13.82;;;7.07;;
8036;SDS011;4061;51.360;7.340;2022-10-13T15:16:43;18.67;;;6.72;;
8036;SDS011;4061;51.360;7.340;2022-10-13T15:19:10;14.70;;;7.47;;
8036;SDS011;4061;51.360;7.340;2022-10-13T15:21:38;15.65;;;7.78;;
8036;SDS011;4061;51.360;7.340;2022-10-13T15:24:07;14.80;;;7.88;;
8036;SDS011;4061;51.360;7.340;2022-10-13T15:26:35;17.55;;;7.85;;